sensor_id;sensor_type;location;lat;lon;timestamp;pressure;altitude;pressure_sealevel;temperature;humidity
47670;BME280;33408;52.062;11.722;2023-09-19T00:02:20;100226.81;;;19.34;100.00
47670;BME280;33408;52.062;11.722;2023-09-19T00:04:47;100220.88;;;19.30;100.00
47670;BME280;33408;52.062;11.722;2023-09-19T00:07:15;100227.84;;;19.31;100.00
47670;BME280;33408;52.062;11.722;2023-09-19T00:09:42;100223.44;;;19.17;100.00
47670;BME280;33408;52.062;11.722;2023-09-19T00:12:09;100238.00;;;19.23;100.00
47670;BME280;33408;52.062;11.722;2023-09-19T00:14:38;100235.19;;;19.26;100.00
47670;BME280;33408;52.062;11.722;2023-09-19T00:17:05;100228.69;;;19.17;100.00
47670;BME280;33408;52.062;11.722;2023-09-19T00:19:34;100237.28;;;19.06;100.00
47670;BME280;33408;52.062;11.722;2023-09-19T00:22:01;100236.78;;;19.00;100.00
47670;BME280;33408;52.062;11.722;2023-09-19T00:24:28;100239.13;;;18.90;100.00
47670;BME280;33408;52.062;11.722;2023-09-19T00:26:54;100238.16;;;18.76;100.00
47670;BME280;33408;52.062;11.722;2023-09-19T00:29:21;100237.03;;;18.66;100.00
47670;BME280;33408;52.062;11.722;2023-09-19T00:31:48;100239.56;;;18.53;100.00
47670;BME280;33408;52.062;11.722;2023-09-19T00:34:15;100235.31;;;18.51;100.00
47670;BME280;33408;52.062;11.722;2023-09-19T00:36:44;100233.63;;;18.35;100.00
47670;BME280;33408;52.062;11.722;2023-09-19T00:39:10;100238.66;;;18.24;100.00
47670;BME280;33408;52.062;11.722;2023-09-19T00:41:37;100242.97;;;18.25;100.00
47670;BME280;33408;52.062;11.722;2023-09-19T00:44:04;100234.81;;;18.30;100.00
47670;BME280;33408;52.062;11.722;2023-09-19T00:46:31;100232.47;;;18.25;100.00
47670;BME280;33408;52.062;11.722;2023-09-19T00:48:58;100232.91;;;18.17;100.00
47670;BME280;33408;52.062;11.722;2023-09-19T00:51:26;100235.03;;;18.11;100.00
47670;BME280;33408;52.062;11.722;2023-09-19T00:53:54;100228.97;;;18.10;100.00
47670;BME280;33408;52.062;11.722;2023-09-19T00:56:21;100222.38;;;18.03;100.00
47670;BME280;33408;52.062;11.722;2023-09-19T00:58:48;100223.50;;;17.99;100.00
47670;BME280;33408;52.062;11.722;2023-09-19T01:01:15;100224.75;;;17.92;100.00
47670;BME280;33408;52.062;11.722;2023-09-19T01:03:42;100231.03;;;17.89;100.00
47670;BME280;33408;52.062;11.722;2023-09-19T01:06:10;100224.88;;;17.74;100.00
47670;BME280;33408;52.062;11.722;2023-09-19T01:08:37;100228.66;;;17.68;100.00
47670;BME280;33408;52.062;11.722;2023-09-19T01:11:13;100234.31;;;17.61;100.00
47670;BME280;33408;52.062;11.722;2023-09-19T01:13:48;100224.88;;;17.58;100.00
47670;BME280;33408;52.062;11.722;2023-09-19T01:16:27;100228.50;;;17.56;100.00
47670;BME280;33408;52.062;11.722;2023-09-19T01:19:02;100234.41;;;17.43;100.00
47670;BME280;33408;52.062;11.722;2023-09-19T01:21:38;100228.25;;;17.44;100.00
47670;BME280;33408;52.062;11.722;2023-09-19T01:24:34;100224.34;;;17.52;100.00
47670;BME280;33408;52.062;11.722;2023-09-19T01:27:21;100244.13;;;17.41;100.00
47670;BME280;33408;52.062;11.722;2023-09-19T01:29:52;100257.75;;;17.32;100.00
47670;BME280;33408;52.062;11.722;2023-09-19T01:32:21;100253.44;;;17.31;100.00
47670;BME280;33408;52.062;11.722;2023-09-19T01:34:52;100254.78;;;17.22;100.00
47670;BME280;33408;52.062;11.722;2023-09-19T01:37:22;100268.72;;;17.23;100.00
47670;BME280;33408;52.062;11.722;2023-09-19T01:39:53;100268.91;;;17.20;100.00
47670;BME280;33408;52.062;11.722;2023-09-19T01:42:28;100269.47;;;17.09;100.00
47670;BME280;33408;52.062;11.722;2023-09-19T01:45:01;100266.75;;;17.10;100.00
47670;BME280;33408;52.062;11.722;2023-09-19T01:47:33;100273.34;;;17.02;100.00
47670;BME280;33408;52.062;11.722;2023-09-19T01:50:11;100275.91;;;16.86;100.00
47670;BME280;33408;52.062;11.722;2023-09-19T01:52:45;100271.97;;;16.94;100.00
47670;BME280;33408;52.062;11.722;2023-09-19T01:55:14;100281.44;;;16.80;100.00
47670;BME280;33408;52.062;11.722;2023-09-19T01:57:49;100280.31;;;16.84;100.00
47670;BME280;33408;52.062;11.722;2023-09-19T02:00:20;100282.19;;;16.82;100.00
47670;BME280;33408;52.062;11.722;2023-09-19T02:02:50;100287.34;;;16.83;100.00
47670;BME280;33408;52.062;11.722;2023-09-19T02:05:24;100290.03;;;16.82;100.00
47670;BME280;33408;52.062;11.722;2023-09-19T02:07:52;100293.13;;;16.72;100.00
47670;BME280;33408;52.062;11.722;2023-09-19T02:10:21;100287.66;;;16.77;100.00
47670;BME280;33408;52.062;11.722;2023-09-19T02:12:47;100284.59;;;16.86;100.00
47670;BME280;33408;52.062;11.722;2023-09-19T02:15:15;100287.16;;;16.88;100.00
47670;BME280;33408;52.062;11.722;2023-09-19T02:17:42;100288.72;;;17.08;100.00
47670;BME280;33408;52.062;11.722;2023-09-19T02:20:11;100285.78;;;17.14;100.00
47670;BME280;33408;52.062;11.722;2023-09-19T02:22:40;100290.69;;;17.20;100.00
47670;BME280;33408;52.062;11.722;2023-09-19T02:25:07;100291.59;;;17.19;100.00
47670;BME280;33408;52.062;11.722;2023-09-19T02:27:34;100293.81;;;17.27;100.00
47670;BME280;33408;52.062;11.722;2023-09-19T02:30:01;100294.94;;;17.39;100.00
47670;BME280;33408;52.062;11.722;2023-09-19T02:32:29;100305.53;;;17.37;100.00
47670;BME280;33408;52.062;11.722;2023-09-19T02:34:56;100303.13;;;17.33;100.00
47670;BME280;33408;52.062;11.722;2023-09-19T02:37:25;100304.91;;;17.32;100.00
47670;BME280;33408;52.062;11.722;2023-09-19T02:39:52;100308.38;;;17.33;100.00
47670;BME280;33408;52.062;11.722;2023-09-19T02:42:18;100306.50;;;17.35;100.00
47670;BME280;33408;52.062;11.722;2023-09-19T02:44:45;100301.44;;;17.31;100.00
47670;BME280;33408;52.062;11.722;2023-09-19T02:47:12;100306.91;;;17.27;100.00
47670;BME280;33408;52.062;11.722;2023-09-19T02:49:40;100314.63;;;17.30;100.00
47670;BME280;33408;52.062;11.722;2023-09-19T02:52:07;100316.81;;;17.22;100.00
47670;BME280;33408;52.062;11.722;2023-09-19T02:54:37;100321.56;;;17.31;100.00
47670;BME280;33408;52.062;11.722;2023-09-19T02:57:04;100322.16;;;17.36;100.00
47670;BME280;33408;52.062;11.722;2023-09-19T02:59:32;100324.78;;;17.36;100.00
47670;BME280;33408;52.062;11.722;2023-09-19T03:02:02;100326.38;;;17.39;100.00
47670;BME280;33408;52.062;11.722;2023-09-19T03:04:30;100330.78;;;17.38;100.00
47670;BME280;33408;52.062;11.722;2023-09-19T03:06:56;100328.81;;;17.26;100.00
47670;BME280;33408;52.062;11.722;2023-09-19T03:09:25;100350.19;;;17.18;100.00
47670;BME280;33408;52.062;11.722;2023-09-19T03:11:54;100342.00;;;17.24;100.00
47670;BME280;33408;52.062;11.722;2023-09-19T03:14:20;100350.63;;;17.26;100.00
47670;BME280;33408;52.062;11.722;2023-09-19T03:16:48;100340.16;;;17.09;100.00
47670;BME280;33408;52.062;11.722;2023-09-19T03:19:15;100349.91;;;16.89;100.00
47670;BME280;33408;52.062;11.722;2023-09-19T03:21:42;100344.50;;;16.92;100.00
47670;BME280;33408;52.062;11.722;2023-09-19T03:24:09;100350.03;;;17.04;100.00
47670;BME280;33408;52.062;11.722;2023-09-19T03:26:36;100345.28;;;16.94;100.00
47670;BME280;33408;52.062;11.722;2023-09-19T03:29:05;100343.81;;;16.89;100.00
47670;BME280;33408;52.062;11.722;2023-09-19T03:31:32;100354.91;;;16.94;100.00
47670;BME280;33408;52.062;11.722;2023-09-19T03:34:02;100346.25;;;16.92;100.00
47670;BME280;33408;52.062;11.722;2023-09-19T03:36:29;100350.72;;;16.90;100.00
47670;BME280;33408;52.062;11.722;2023-09-19T03:38:55;100356.19;;;16.85;100.00
47670;BME280;33408;52.062;11.722;2023-09-19T03:41:22;100353.19;;;16.93;100.00
47670;BME280;33408;52.062;11.722;2023-09-19T03:43:48;100356.31;;;16.82;100.00
47670;BME280;33408;52.062;11.722;2023-09-19T03:46:17;100348.69;;;16.77;100.00
47670;BME280;33408;52.062;11.722;2023-09-19T03:48:43;100354.31;;;16.89;100.00
47670;BME280;33408;52.062;11.722;2023-09-19T03:51:10;100354.19;;;16.90;100.00
47670;BME280;33408;52.062;11.722;2023-09-19T03:53:36;100351.69;;;16.89;100.00
47670;BME280;33408;52.062;11.722;2023-09-19T03:56:03;100352.94;;;16.80;100.00
47670;BME280;33408;52.062;11.722;2023-09-19T03:58:30;100352.78;;;16.83;100.00
47670;BME280;33408;52.062;11.722;2023-09-19T04:00:57;100354.81;;;16.78;100.00
47670;BME280;33408;52.062;11.722;2023-09-19T04:03:26;100363.50;;;16.78;100.00
47670;BME280;33408;52.062;11.722;2023-09-19T04:06:00;100365.34;;;16.76;100.00
47670;BME280;33408;52.062;11.722;2023-09-19T04:08:27;100367.56;;;16.67;100.00
47670;BME280;33408;52.062;11.722;2023-09-19T04:10:54;100369.44;;;16.65;100.00
47670;BME280;33408;52.062;11.722;2023-09-19T04:13:22;100377.34;;;16.63;100.00
47670;BME280;33408;52.062;11.722;2023-09-19T04:15:48;100382.75;;;16.60;100.00
47670;BME280;33408;52.062;11.722;2023-09-19T04:18:15;100377.72;;;16.55;100.00
47670;BME280;33408;52.062;11.722;2023-09-19T04:20:47;100382.41;;;16.49;100.00
47670;BME280;33408;52.062;11.722;2023-09-19T04:23:14;100377.81;;;16.54;100.00
47670;BME280;33408;52.062;11.722;2023-09-19T04:25:41;100393.66;;;16.51;100.00
47670;BME280;33408;52.062;11.722;2023-09-19T04:28:07;100395.09;;;16.39;100.00
47670;BME280;33408;52.062;11.722;2023-09-19T04:30:35;100386.47;;;16.37;100.00
47670;BME280;33408;52.062;11.722;2023-09-19T04:33:02;100393.41;;;16.19;100.00
47670;BME280;33408;52.062;11.722;2023-09-19T04:35:29;100385.44;;;16.22;100.00
47670;BME280;33408;52.062;11.722;2023-09-19T04:37:58;100388.25;;;16.17;100.00
47670;BME280;33408;52.062;11.722;2023-09-19T04:40:24;100387.91;;;16.06;100.00
47670;BME280;33408;52.062;11.722;2023-09-19T04:42:53;100392.09;;;16.10;100.00
47670;BME280;33408;52.062;11.722;2023-09-19T04:45:21;100403.31;;;16.12;100.00
47670;BME280;33408;52.062;11.722;2023-09-19T04:47:48;100408.34;;;15.98;100.00
47670;BME280;33408;52.062;11.722;2023-09-19T04:50:15;100404.75;;;16.00;100.00
47670;BME280;33408;52.062;11.722;2023-09-19T04:52:43;100412.47;;;16.03;100.00
47670;BME280;33408;52.062;11.722;2023-09-19T04:55:12;100417.91;;;15.99;100.00
47670;BME280;33408;52.062;11.722;2023-09-19T04:57:41;100427.06;;;15.89;100.00
47670;BME280;33408;52.062;11.722;2023-09-19T05:00:09;100431.44;;;15.88;100.00
47670;BME280;33408;52.062;11.722;2023-09-19T05:02:39;100430.75;;;15.84;100.00
47670;BME280;33408;52.062;11.722;2023-09-19T05:05:07;100433.94;;;15.91;100.00
47670;BME280;33408;52.062;11.722;2023-09-19T05:07:34;100441.44;;;15.99;100.00
47670;BME280;33408;52.062;11.722;2023-09-19T05:10:01;100437.31;;;15.93;100.00
47670;BME280;33408;52.062;11.722;2023-09-19T05:12:29;100440.94;;;15.91;100.00
47670;BME280;33408;52.062;11.722;2023-09-19T05:14:56;100440.00;;;15.92;100.00
47670;BME280;33408;52.062;11.722;2023-09-19T05:17:22;100436.34;;;15.96;100.00
47670;BME280;33408;52.062;11.722;2023-09-19T05:19:50;100437.66;;;16.04;100.00
47670;BME280;33408;52.062;11.722;2023-09-19T05:22:17;100443.72;;;16.05;100.00
47670;BME280;33408;52.062;11.722;2023-09-19T05:24:44;100448.25;;;16.01;100.00
47670;BME280;33408;52.062;11.722;2023-09-19T05:27:12;100448.53;;;15.95;100.00
47670;BME280;33408;52.062;11.722;2023-09-19T05:29:40;100448.25;;;16.01;100.00
47670;BME280;33408;52.062;11.722;2023-09-19T05:32:07;100448.97;;;16.05;100.00
47670;BME280;33408;52.062;11.722;2023-09-19T05:34:35;100458.66;;;16.22;100.00
47670;BME280;33408;52.062;11.722;2023-09-19T05:37:02;100463.13;;;16.20;100.00
47670;BME280;33408;52.062;11.722;2023-09-19T05:39:28;100464.72;;;16.41;100.00
47670;BME280;33408;52.062;11.722;2023-09-19T05:41:55;100462.59;;;16.50;100.00
47670;BME280;33408;52.062;11.722;2023-09-19T05:44:22;100465.25;;;16.67;100.00
47670;BME280;33408;52.062;11.722;2023-09-19T05:46:50;100467.50;;;16.75;100.00
47670;BME280;33408;52.062;11.722;2023-09-19T05:49:17;100471.03;;;16.74;100.00
47670;BME280;33408;52.062;11.722;2023-09-19T05:51:46;100471.84;;;16.76;100.00
47670;BME280;33408;52.062;11.722;2023-09-19T05:54:13;100477.44;;;16.68;100.00
47670;BME280;33408;52.062;11.722;2023-09-19T05:56:40;100476.63;;;16.66;100.00
47670;BME280;33408;52.062;11.722;2023-09-19T05:59:44;100474.75;;;16.70;100.00
47670;BME280;33408;52.062;11.722;2023-09-19T06:02:12;100475.94;;;16.63;100.00
47670;BME280;33408;52.062;11.722;2023-09-19T06:04:39;100474.13;;;16.65;100.00
47670;BME280;33408;52.062;11.722;2023-09-19T06:07:06;100480.25;;;16.64;100.00
47670;BME280;33408;52.062;11.722;2023-09-19T06:09:33;100488.13;;;16.64;100.00
47670;BME280;33408;52.062;11.722;2023-09-19T06:11:59;100484.41;;;16.68;100.00
47670;BME280;33408;52.062;11.722;2023-09-19T06:14:28;100491.22;;;16.72;100.00
47670;BME280;33408;52.062;11.722;2023-09-19T06:16:56;100504.06;;;16.76;100.00
47670;BME280;33408;52.062;11.722;2023-09-19T06:19:24;100507.19;;;16.66;100.00
47670;BME280;33408;52.062;11.722;2023-09-19T06:21:52;100508.69;;;16.71;100.00
47670;BME280;33408;52.062;11.722;2023-09-19T06:24:19;100506.91;;;16.72;100.00
47670;BME280;33408;52.062;11.722;2023-09-19T06:26:46;100515.38;;;16.77;100.00
47670;BME280;33408;52.062;11.722;2023-09-19T06:29:13;100526.63;;;16.79;100.00
47670;BME280;33408;52.062;11.722;2023-09-19T06:31:39;100532.31;;;16.70;100.00
47670;BME280;33408;52.062;11.722;2023-09-19T06:34:07;100539.03;;;16.75;100.00
47670;BME280;33408;52.062;11.722;2023-09-19T06:36:35;100549.19;;;16.82;100.00
47670;BME280;33408;52.062;11.722;2023-09-19T06:39:01;100557.78;;;16.85;100.00
47670;BME280;33408;52.062;11.722;2023-09-19T06:41:29;100561.13;;;16.89;100.00
47670;BME280;33408;52.062;11.722;2023-09-19T06:43:56;100566.19;;;16.92;100.00
47670;BME280;33408;52.062;11.722;2023-09-19T06:46:23;100573.13;;;16.93;100.00
47670;BME280;33408;52.062;11.722;2023-09-19T08:16:44;100620.50;;;18.14;73.47
47670;BME280;33408;52.062;11.722;2023-09-19T08:19:10;100620.47;;;18.31;73.34
47670;BME280;33408;52.062;11.722;2023-09-19T08:21:37;100617.31;;;18.58;73.78
47670;BME280;33408;52.062;11.722;2023-09-19T08:24:04;100623.97;;;18.48;72.85
47670;BME280;33408;52.062;11.722;2023-09-19T08:26:31;100625.28;;;18.56;73.65
47670;BME280;33408;52.062;11.722;2023-09-19T08:28:58;100617.03;;;18.47;73.46
47670;BME280;33408;52.062;11.722;2023-09-19T08:31:24;100623.00;;;18.66;73.45
47670;BME280;33408;52.062;11.722;2023-09-19T08:33:53;100635.13;;;18.85;73.96
47670;BME280;33408;52.062;11.722;2023-09-19T08:36:21;100634.47;;;18.48;72.33
47670;BME280;33408;52.062;11.722;2023-09-19T08:38:47;100623.56;;;18.55;72.57
47670;BME280;33408;52.062;11.722;2023-09-19T08:41:17;100633.81;;;18.60;72.65
47670;BME280;33408;52.062;11.722;2023-09-19T08:43:44;100618.66;;;18.65;72.95
47670;BME280;33408;52.062;11.722;2023-09-19T08:46:15;100634.91;;;18.56;70.83
47670;BME280;33408;52.062;11.722;2023-09-19T08:48:45;100642.84;;;18.54;69.56
47670;BME280;33408;52.062;11.722;2023-09-19T08:51:18;100635.34;;;18.48;68.95
47670;BME280;33408;52.062;11.722;2023-09-19T08:53:51;100638.88;;;18.47;69.58
47670;BME280;33408;52.062;11.722;2023-09-19T08:56:18;100641.03;;;18.56;69.26
47670;BME280;33408;52.062;11.722;2023-09-19T08:58:50;100642.53;;;18.61;70.15
47670;BME280;33408;52.062;11.722;2023-09-19T09:01:19;100653.47;;;18.69;71.78
47670;BME280;33408;52.062;11.722;2023-09-19T09:03:50;100650.09;;;18.67;70.43
47670;BME280;33408;52.062;11.722;2023-09-19T09:06:19;100655.97;;;18.88;70.42
47670;BME280;33408;52.062;11.722;2023-09-19T09:08:46;100660.09;;;18.76;70.05
47670;BME280;33408;52.062;11.722;2023-09-19T09:11:14;100661.25;;;18.88;70.46
47670;BME280;33408;52.062;11.722;2023-09-19T09:13:43;100667.81;;;18.79;68.77
47670;BME280;33408;52.062;11.722;2023-09-19T09:16:10;100664.28;;;18.63;67.57
47670;BME280;33408;52.062;11.722;2023-09-19T09:18:38;100665.72;;;18.52;67.39
47670;BME280;33408;52.062;11.722;2023-09-19T09:21:04;100672.63;;;18.71;67.66
47670;BME280;33408;52.062;11.722;2023-09-19T09:23:32;100663.31;;;18.81;66.74
47670;BME280;33408;52.062;11.722;2023-09-19T09:25:59;100662.34;;;19.00;67.90
47670;BME280;33408;52.062;11.722;2023-09-19T09:28:29;100665.66;;;19.03;65.48
47670;BME280;33408;52.062;11.722;2023-09-19T09:30:56;100663.53;;;19.10;66.12
47670;BME280;33408;52.062;11.722;2023-09-19T09:33:23;100670.47;;;19.43;67.32
47670;BME280;33408;52.062;11.722;2023-09-19T09:35:51;100670.47;;;19.43;66.32
47670;BME280;33408;52.062;11.722;2023-09-19T09:38:19;100671.00;;;19.34;65.72
47670;BME280;33408;52.062;11.722;2023-09-19T09:40:49;100671.25;;;19.45;65.56
47670;BME280;33408;52.062;11.722;2023-09-19T09:43:32;100666.16;;;19.88;65.35
47670;BME280;33408;52.062;11.722;2023-09-19T09:46:10;100667.63;;;19.78;65.38
47670;BME280;33408;52.062;11.722;2023-09-19T09:49:05;100667.56;;;19.63;63.72
47670;BME280;33408;52.062;11.722;2023-09-19T09:51:44;100655.63;;;19.58;64.42
47670;BME280;33408;52.062;11.722;2023-09-19T09:54:15;100653.50;;;19.48;64.94
47670;BME280;33408;52.062;11.722;2023-09-19T09:56:56;100658.41;;;19.55;65.42
47670;BME280;33408;52.062;11.722;2023-09-19T09:59:44;100644.63;;;19.65;64.64
47670;BME280;33408;52.062;11.722;2023-09-19T10:02:13;100654.03;;;19.85;65.71
47670;BME280;33408;52.062;11.722;2023-09-19T10:04:40;100654.81;;;19.72;65.53
47670;BME280;33408;52.062;11.722;2023-09-19T10:07:27;100663.59;;;19.56;64.89
47670;BME280;33408;52.062;11.722;2023-09-19T10:09:58;100660.75;;;19.59;65.54
47670;BME280;33408;52.062;11.722;2023-09-19T10:12:39;100660.09;;;19.56;64.99
47670;BME280;33408;52.062;11.722;2023-09-19T10:15:10;100660.44;;;19.49;64.55
47670;BME280;33408;52.062;11.722;2023-09-19T10:17:37;100662.16;;;19.50;64.88
47670;BME280;33408;52.062;11.722;2023-09-19T10:20:09;100660.06;;;19.72;65.23
47670;BME280;33408;52.062;11.722;2023-09-19T10:22:48;100664.38;;;19.89;64.88
47670;BME280;33408;52.062;11.722;2023-09-19T10:25:25;100670.34;;;20.07;65.74
47670;BME280;33408;52.062;11.722;2023-09-19T10:27:56;100658.00;;;19.93;65.16
47670;BME280;33408;52.062;11.722;2023-09-19T10:30:25;100664.34;;;20.04;65.27
47670;BME280;33408;52.062;11.722;2023-09-19T10:32:59;100656.00;;;19.96;64.16
47670;BME280;33408;52.062;11.722;2023-09-19T10:35:27;100658.84;;;19.93;64.27
47670;BME280;33408;52.062;11.722;2023-09-19T10:37:54;100659.63;;;20.10;63.40
47670;BME280;33408;52.062;11.722;2023-09-19T10:40:24;100656.94;;;20.40;63.05
47670;BME280;33408;52.062;11.722;2023-09-19T10:43:01;100661.31;;;20.11;63.11
47670;BME280;33408;52.062;11.722;2023-09-19T10:45:31;100662.94;;;20.28;61.70
47670;BME280;33408;52.062;11.722;2023-09-19T10:47:58;100661.06;;;20.30;60.54
47670;BME280;33408;52.062;11.722;2023-09-19T10:50:27;100652.19;;;20.02;60.57
47670;BME280;33408;52.062;11.722;2023-09-19T10:52:59;100654.59;;;20.35;61.36
47670;BME280;33408;52.062;11.722;2023-09-19T10:55:31;100658.34;;;20.46;60.48
47670;BME280;33408;52.062;11.722;2023-09-19T10:57:59;100663.69;;;20.58;61.00
47670;BME280;33408;52.062;11.722;2023-09-19T11:00:30;100659.09;;;20.48;59.50
47670;BME280;33408;52.062;11.722;2023-09-19T11:03:19;100665.13;;;20.50;58.76
47670;BME280;33408;52.062;11.722;2023-09-19T11:06:05;100667.38;;;20.70;58.73
47670;BME280;33408;52.062;11.722;2023-09-19T11:08:56;100676.25;;;20.69;58.62
47670;BME280;33408;52.062;11.722;2023-09-19T11:11:39;100666.81;;;20.51;58.77
47670;BME280;33408;52.062;11.722;2023-09-19T11:14:29;100670.44;;;20.64;58.68
47670;BME280;33408;52.062;11.722;2023-09-19T11:17:30;100669.72;;;20.32;59.11
47670;BME280;33408;52.062;11.722;2023-09-19T11:20:18;100666.78;;;20.22;58.85
47670;BME280;33408;52.062;11.722;2023-09-19T11:23:17;100665.75;;;20.25;59.08
47670;BME280;33408;52.062;11.722;2023-09-19T11:25:48;100668.31;;;20.40;59.61
47670;BME280;33408;52.062;11.722;2023-09-19T11:28:30;100666.44;;;20.57;59.52
47670;BME280;33408;52.062;11.722;2023-09-19T11:30:59;100668.88;;;20.60;59.30
47670;BME280;33408;52.062;11.722;2023-09-19T11:33:26;100662.69;;;20.75;57.91
47670;BME280;33408;52.062;11.722;2023-09-19T11:36:03;100654.78;;;20.47;59.36
47670;BME280;33408;52.062;11.722;2023-09-19T11:39:01;100657.53;;;20.74;59.09
47670;BME280;33408;52.062;11.722;2023-09-19T11:41:37;100658.34;;;20.89;59.03
47670;BME280;33408;52.062;11.722;2023-09-19T11:44:32;100648.06;;;20.99;59.13
47670;BME280;33408;52.062;11.722;2023-09-19T11:47:05;100642.19;;;20.81;58.15
47670;BME280;33408;52.062;11.722;2023-09-19T11:49:32;100643.66;;;20.85;58.62
47670;BME280;33408;52.062;11.722;2023-09-19T11:52:01;100651.50;;;20.72;58.12
47670;BME280;33408;52.062;11.722;2023-09-19T11:54:31;100646.69;;;20.93;59.43
47670;BME280;33408;52.062;11.722;2023-09-19T11:56:59;100654.19;;;20.99;59.26
47670;BME280;33408;52.062;11.722;2023-09-19T11:59:27;100644.38;;;21.16;59.03
47670;BME280;33408;52.062;11.722;2023-09-19T12:01:59;100649.53;;;21.17;57.79
47670;BME280;33408;52.062;11.722;2023-09-19T12:04:37;100651.06;;;21.07;59.06
47670;BME280;33408;52.062;11.722;2023-09-19T12:07:09;100649.13;;;21.23;58.66
47670;BME280;33408;52.062;11.722;2023-09-19T12:09:41;100652.97;;;21.05;59.06
47670;BME280;33408;52.062;11.722;2023-09-19T12:12:09;100654.81;;;21.17;60.07
47670;BME280;33408;52.062;11.722;2023-09-19T12:14:38;100660.56;;;21.09;59.33
47670;BME280;33408;52.062;11.722;2023-09-19T12:17:07;100653.81;;;20.91;58.74
47670;BME280;33408;52.062;11.722;2023-09-19T12:19:34;100651.53;;;20.99;58.79
47670;BME280;33408;52.062;11.722;2023-09-19T12:22:03;100649.31;;;21.20;58.19
47670;BME280;33408;52.062;11.722;2023-09-19T12:24:31;100650.50;;;21.02;58.24
47670;BME280;33408;52.062;11.722;2023-09-19T12:27:02;100656.03;;;21.11;57.85
47670;BME280;33408;52.062;11.722;2023-09-19T12:29:31;100649.78;;;21.00;57.67
47670;BME280;33408;52.062;11.722;2023-09-19T12:31:59;100657.53;;;21.43;59.17
47670;BME280;33408;52.062;11.722;2023-09-19T12:34:30;100646.50;;;21.23;58.46
47670;BME280;33408;52.062;11.722;2023-09-19T12:37:08;100661.66;;;21.20;60.27
47670;BME280;33408;52.062;11.722;2023-09-19T12:39:39;100650.31;;;21.05;59.63
47670;BME280;33408;52.062;11.722;2023-09-19T12:42:09;100653.28;;;20.86;59.22
47670;BME280;33408;52.062;11.722;2023-09-19T12:44:37;100652.81;;;21.21;58.84
47670;BME280;33408;52.062;11.722;2023-09-19T12:47:15;100650.31;;;21.05;58.17
47670;BME280;33408;52.062;11.722;2023-09-19T12:50:05;100645.06;;;21.32;58.16
47670;BME280;33408;52.062;11.722;2023-09-19T12:52:37;100640.13;;;21.40;56.63
47670;BME280;33408;52.062;11.722;2023-09-19T12:55:04;100629.94;;;21.21;55.54
47670;BME280;33408;52.062;11.722;2023-09-19T12:57:32;100648.72;;;21.29;55.58
47670;BME280;33408;52.062;11.722;2023-09-19T13:00:00;100651.28;;;21.31;55.59
47670;BME280;33408;52.062;11.722;2023-09-19T13:02:26;100644.72;;;21.24;55.08
47670;BME280;33408;52.062;11.722;2023-09-19T13:04:53;100639.75;;;21.19;55.07
47670;BME280;33408;52.062;11.722;2023-09-19T13:07:42;100649.28;;;21.35;55.67
47670;BME280;33408;52.062;11.722;2023-09-19T13:10:10;100650.28;;;21.46;56.24
47670;BME280;33408;52.062;11.722;2023-09-19T13:12:41;100642.34;;;20.92;55.03
47670;BME280;33408;52.062;11.722;2023-09-19T13:15:09;100644.78;;;20.95;55.54
47670;BME280;33408;52.062;11.722;2023-09-19T13:17:45;100638.28;;;20.86;55.84
47670;BME280;33408;52.062;11.722;2023-09-19T13:20:24;100628.97;;;20.95;54.86
47670;BME280;33408;52.062;11.722;2023-09-19T13:22:55;100638.84;;;21.06;54.97
47670;BME280;33408;52.062;11.722;2023-09-19T13:25:25;100637.69;;;21.10;54.58
47670;BME280;33408;52.062;11.722;2023-09-19T13:27:55;100631.69;;;21.08;55.08
47670;BME280;33408;52.062;11.722;2023-09-19T13:30:23;100635.06;;;21.10;55.33
47670;BME280;33408;52.062;11.722;2023-09-19T13:32:51;100623.28;;;21.16;55.28
47670;BME280;33408;52.062;11.722;2023-09-19T13:35:19;100630.63;;;21.38;54.75
47670;BME280;33408;52.062;11.722;2023-09-19T13:37:47;100630.28;;;21.29;54.21
47670;BME280;33408;52.062;11.722;2023-09-19T13:40:18;100631.16;;;21.43;54.38
47670;BME280;33408;52.062;11.722;2023-09-19T13:42:44;100626.72;;;21.30;53.75
47670;BME280;33408;52.062;11.722;2023-09-19T13:45:11;100630.91;;;21.33;54.60
47670;BME280;33408;52.062;11.722;2023-09-19T13:47:41;100637.25;;;21.30;54.33
47670;BME280;33408;52.062;11.722;2023-09-19T13:50:08;100631.63;;;21.22;54.01
47670;BME280;33408;52.062;11.722;2023-09-19T13:52:35;100644.16;;;21.19;54.33
47670;BME280;33408;52.062;11.722;2023-09-19T13:55:07;100638.03;;;21.18;53.19
47670;BME280;33408;52.062;11.722;2023-09-19T13:57:35;100638.22;;;21.15;53.69
47670;BME280;33408;52.062;11.722;2023-09-19T14:00:02;100633.22;;;21.25;53.72
47670;BME280;33408;52.062;11.722;2023-09-19T14:02:30;100629.50;;;21.15;53.78
47670;BME280;33408;52.062;11.722;2023-09-19T14:04:57;100627.88;;;21.39;54.15
47670;BME280;33408;52.062;11.722;2023-09-19T14:07:23;100632.38;;;21.24;53.48
47670;BME280;33408;52.062;11.722;2023-09-19T14:09:50;100624.94;;;21.44;53.85
47670;BME280;33408;52.062;11.722;2023-09-19T14:12:18;100625.59;;;21.20;53.11
47670;BME280;33408;52.062;11.722;2023-09-19T14:14:46;100623.94;;;21.19;53.61
47670;BME280;33408;52.062;11.722;2023-09-19T14:17:12;100619.00;;;21.27;54.33
47670;BME280;33408;52.062;11.722;2023-09-19T14:19:40;100611.63;;;21.05;54.02